Time;durP1;ratioP1;P1;durP2;ratioP2;P2;SDS_P1;SDS_P2;PMS_P1;PMS_P2;Temp;Humidity;BMP_temperature;BMP_pressure;BME280_temperature;BME280_humidity;BME280_pressure;Samples;Min_cycle;Max_cycle;Signal;HPM_P1;HPM_P2
2022/06/20 00:01:42;;;;;;;10.05;5.58;;;;;;;16.87;71.12;100899.16;1748689;82;21116;-90
2022/06/20 00:04:12;;;;;;;8.88;6.10;;;;;;;16.85;71.25;100898.92;1748939;80;21064;-89
2022/06/20 00:06:39;;;;;;;8.45;6.00;;;;;;;16.86;71.30;100899.30;1732484;80;20995;-88
2022/06/20 00:09:06;;;;;;;6.92;4.95;;;;;;;16.84;71.23;100900.74;1748861;80;21090;-88
2022/06/20 00:11:38;;;;;;;8.50;5.80;;;;;;;16.82;71.01;100896.05;1733339;80;21206;-89
2022/06/20 00:14:06;;;;;;;9.03;5.87;;;;;;;16.80;70.93;100891.36;1749789;80;20951;-88
2022/06/20 00:16:34;;;;;;;7.72;5.65;;;;;;;16.76;71.05;100890.76;1728037;79;20974;-88
2022/06/20 00:19:00;;;;;;;6.87;5.62;;;;;;;16.76;71.10;100889.89;1712172;81;20948;-88
2022/06/20 00:21:29;;;;;;;9.33;5.83;;;;;;;16.74;70.96;100891.83;1714675;81;21049;-89
2022/06/20 00:23:55;;;;;;;7.30;5.90;;;;;;;16.72;70.94;100891.97;1714860;82;21244;-87
2022/06/20 00:26:23;;;;;;;9.25;6.45;;;;;;;16.70;70.96;100891.25;1714990;82;21061;-88
2022/06/20 00:28:51;;;;;;;7.28;5.25;;;;;;;16.67;71.11;100886.67;1714835;81;20919;-87
2022/06/20 00:31:17;;;;;;;6.12;5.08;;;;;;;16.64;71.21;100883.80;1714800;81;20995;-87
2022/06/20 00:33:44;;;;;;;6.55;5.25;;;;;;;16.63;71.29;100880.80;1715301;81;20931;-88
2022/06/20 00:36:12;;;;;;;7.28;5.10;;;;;;;16.61;71.30;100880.55;1715504;83;21145;-88
2022/06/20 00:38:41;;;;;;;7.60;5.53;;;;;;;16.58;71.35;100881.19;1715113;81;20958;-87
2022/06/20 00:41:13;;;;;;;6.00;5.03;;;;;;;16.57;71.28;100878.16;1714708;81;20876;-87
2022/06/20 00:43:45;;;;;;;6.85;4.65;;;;;;;16.56;71.12;100875.62;1689750;81;21014;-88
2022/06/20 00:48:56;;;;;;;5.97;4.65;;;;;;;16.56;70.84;100875.62;1801184;77;22586;-87
2022/06/20 00:51:43;;;;;;;7.62;4.47;;;;;;;16.50;70.87;100870.85;1684047;81;20954;-87
2022/06/20 00:54:25;;;;;;;5.25;4.30;;;;;;;16.47;70.73;100868.44;1698729;81;21210;-87
2022/06/20 00:57:13;;;;;;;8.55;4.92;;;;;;;16.46;70.63;100876.03;1698088;83;20895;-87
2022/06/20 00:59:45;;;;;;;5.97;4.87;;;;;;;16.42;70.55;100866.16;1699475;84;20911;-88
2022/06/20 01:02:13;;;;;;;6.70;4.85;;;;;;;16.41;70.57;100868.47;1699405;83;20872;-88
2022/06/20 01:04:51;;;;;;;7.03;4.97;;;;;;;16.40;70.58;100869.41;1698607;84;21427;-88
2022/06/20 01:07:21;;;;;;;6.80;5.08;;;;;;;16.40;70.60;100865.44;1696200;84;21314;-86
2022/06/20 01:09:50;;;;;;;11.83;4.78;;;;;;;16.39;70.63;100866.91;1696801;84;20986;-87
2022/06/20 01:12:18;;;;;;;6.80;5.33;;;;;;;16.39;70.70;100870.39;1696862;84;21507;-87
2022/06/20 01:14:45;;;;;;;6.62;4.72;;;;;;;16.41;70.59;100871.57;1669304;84;20943;-88
2022/06/20 01:17:26;;;;;;;5.30;4.33;;;;;;;16.40;70.50;100868.09;1697216;84;20899;-88
2022/06/20 01:20:03;;;;;;;5.35;4.78;;;;;;;16.40;70.43;100869.91;1696635;84;21822;-86
2022/06/20 01:22:44;;;;;;;8.10;4.90;;;;;;;16.35;70.37;100864.98;1696669;84;20970;-87
2022/06/20 01:25:27;;;;;;;6.78;4.58;;;;;;;16.40;70.40;100877.84;1697027;84;20942;-88
2022/06/20 01:27:56;;;;;;;6.80;5.33;;;;;;;16.39;70.28;100878.33;1696894;84;20951;-88
2022/06/20 01:30:26;;;;;;;6.75;5.30;;;;;;;16.39;70.19;100871.72;1696823;82;20944;-88
2022/06/20 01:32:55;;;;;;;7.92;5.55;;;;;;;16.38;69.98;100875.31;1696654;84;21216;-88
2022/06/20 01:38:10;;;;;;;6.17;5.00;;;;;;;16.36;70.10;100866.65;1696624;84;20993;-88
2022/06/20 01:42:18;;;;;;;7.20;4.50;;;;;;;16.34;70.23;100869.44;1696892;83;20971;-87
2022/06/20 01:43:08;;;;;;;6.35;5.20;;;;;;;16.34;70.33;100873.87;1692079;84;20943;-89
2022/06/20 01:48:22;;;;;;;8.68;5.83;;;;;;;16.33;70.17;100878.33;1685588;84;20974;-88
2022/06/20 01:50:50;;;;;;;6.92;4.87;;;;;;;16.32;70.06;100881.13;1745963;81;21154;-87
2022/06/20 01:53:20;;;;;;;7.40;5.20;;;;;;;16.32;69.90;100881.13;1746087;81;20920;-88
2022/06/20 01:55:49;;;;;;;9.80;5.85;;;;;;;16.31;69.91;100886.03;1745788;81;20932;-89
2022/06/20 01:58:20;;;;;;;6.70;4.90;;;;;;;16.31;69.81;100888.19;1745868;80;21251;-89
2022/06/20 02:00:47;;;;;;;7.10;5.15;;;;;;;16.31;69.73;100891.33;1745409;81;20906;-88
2022/06/20 02:03:18;;;;;;;7.72;5.12;;;;;;;16.31;69.78;100890.00;1745310;81;20913;-88
2022/06/20 02:05:49;;;;;;;5.80;5.20;;;;;;;16.31;69.73;100893.48;1745475;81;21350;-88
2022/06/20 02:08:18;;;;;;;6.70;4.87;;;;;;;16.32;69.62;100887.25;1745755;81;20920;-88
2022/06/20 02:10:50;;;;;;;8.03;5.08;;;;;;;16.32;69.22;100889.89;1745290;81;21251;-89
2022/06/20 02:13:17;;;;;;;6.70;5.78;;;;;;;16.34;69.06;100891.94;1745054;82;21359;-88
2022/06/20 02:15:43;;;;;;;7.15;5.55;;;;;;;16.36;68.82;100899.28;1745203;81;20858;-90
2022/06/20 02:18:10;;;;;;;11.03;5.95;;;;;;;16.38;68.47;100901.78;1745123;81;20937;-88
2022/06/20 02:20:45;;;;;;;6.17;5.37;;;;;;;16.40;68.36;100898.53;1745180;81;20889;-88
2022/06/20 02:23:10;;;;;;;8.18;5.22;;;;;;;16.43;68.14;100907.56;1744878;81;21144;-89
2022/06/20 02:25:37;;;;;;;9.88;6.15;;;;;;;16.47;67.90;100908.14;1745383;81;21366;-89
2022/06/20 02:28:10;;;;;;;8.40;7.45;;;;;;;16.50;67.64;100915.86;1734933;81;21296;-88
2022/06/20 02:30:37;;;;;;;7.58;6.37;;;;;;;16.52;67.33;100909.47;1745172;81;20845;-88
2022/06/20 02:33:16;;;;;;;8.48;6.15;;;;;;;16.54;67.21;100908.00;1745078;81;20881;-87
2022/06/20 02:35:43;;;;;;;13.72;5.67;;;;;;;16.58;67.45;100913.42;1738169;81;21287;-87
2022/06/20 02:38:10;;;;;;;10.80;5.97;;;;;;;16.62;67.63;100916.18;1744950;80;21477;-89
2022/06/20 02:40:41;;;;;;;8.68;6.05;;;;;;;16.64;67.62;100916.90;1745111;81;21331;-88
2022/06/20 02:43:22;;;;;;;16.15;7.20;;;;;;;16.68;67.50;100914.86;1745018;80;20905;-89
2022/06/20 02:45:48;;;;;;;10.58;6.53;;;;;;;16.72;67.33;100912.33;1745029;81;20944;-88
2022/06/20 02:48:16;;;;;;;12.58;6.72;;;;;;;16.75;66.92;100914.22;1752802;81;21362;-88
2022/06/20 02:50:48;;;;;;;9.40;7.25;;;;;;;16.77;66.85;100917.59;1758542;80;21421;-87
2022/06/20 02:53:23;;;;;;;11.38;6.55;;;;;;;16.80;66.79;100917.02;1758481;81;20915;-88
2022/06/20 02:55:51;;;;;;;10.65;6.97;;;;;;;16.81;66.69;100923.98;1754010;81;20967;-89
2022/06/20 02:58:25;;;;;;;11.20;6.58;;;;;;;16.83;66.67;100918.94;1758339;80;21026;-89
2022/06/20 03:01:29;;;;;;;9.00;6.33;;;;;;;16.85;66.98;100918.34;1758625;81;21146;-88
2022/06/20 03:03:55;;;;;;;8.18;6.33;;;;;;;16.88;66.91;100924.70;1758431;81;20936;-88
2022/06/20 03:06:26;;;;;;;7.62;6.50;;;;;;;16.92;66.62;100930.11;1758369;81;21069;-87
2022/06/20 03:08:55;;;;;;;10.03;5.83;;;;;;;16.95;66.85;100921.89;1758629;81;20984;-87
2022/06/20 03:11:25;;;;;;;11.50;7.78;;;;;;;16.99;66.85;100922.00;1758984;80;21307;-86
2022/06/20 03:13:56;;;;;;;8.05;6.60;;;;;;;17.04;66.78;100921.63;1758732;80;20881;-88
2022/06/20 03:16:23;;;;;;;10.45;6.58;;;;;;;17.10;66.62;100922.94;1758492;81;20928;-88
2022/06/20 03:18:50;;;;;;;10.50;7.12;;;;;;;17.14;66.68;100922.55;1760102;80;20936;-88
2022/06/20 03:21:19;;;;;;;15.15;7.30;;;;;;;17.18;66.68;100922.63;1760503;81;21413;-88
2022/06/20 03:23:46;;;;;;;15.05;7.80;;;;;;;17.25;66.63;100924.29;1761309;81;20944;-87
2022/06/20 03:26:16;;;;;;;10.93;6.62;;;;;;;17.30;66.72;100919.47;1760429;81;21118;-89
2022/06/20 03:28:43;;;;;;;9.53;7.12;;;;;;;17.36;66.73;100918.96;1759119;81;20936;-89
2022/06/20 03:31:10;;;;;;;12.23;7.00;;;;;;;17.44;66.88;100924.09;1759304;81;20889;-88
2022/06/20 03:33:39;;;;;;;8.75;7.65;;;;;;;17.50;66.95;100921.77;1758637;80;20979;-89
2022/06/20 03:36:19;;;;;;;14.78;8.08;;;;;;;17.58;67.09;100921.11;1758825;80;20876;-88
2022/06/20 03:38:46;;;;;;;12.47;7.78;;;;;;;17.67;66.85;100919.48;1758705;81;21862;-89
2022/06/20 03:41:15;;;;;;;11.78;8.18;;;;;;;17.76;66.70;100922.22;1758673;80;20893;-89
2022/06/20 03:44:00;;;;;;;12.33;6.95;;;;;;;17.86;66.89;100919.63;1759787;81;20856;-88
2022/06/20 03:46:40;;;;;;;13.60;7.17;;;;;;;17.98;66.60;100917.23;1742472;81;20921;-89
2022/06/20 03:49:27;;;;;;;12.03;8.20;;;;;;;18.12;66.44;100914.73;1736136;81;21009;-89
2022/06/20 03:52:12;;;;;;;12.35;7.55;;;;;;;18.23;66.29;100905.33;1734737;79;21143;-88
2022/06/20 03:54:44;;;;;;;10.93;7.72;;;;;;;18.38;65.91;100904.45;1735825;82;21200;-89
2022/06/20 03:57:20;;;;;;;13.58;8.30;;;;;;;18.53;66.30;100909.39;1735183;79;20942;-90
2022/06/20 03:59:56;;;;;;;13.68;7.40;;;;;;;18.66;66.40;100899.84;1734438;79;20859;-87
2022/06/20 04:02:44;;;;;;;12.65;7.28;;;;;;;18.80;66.31;100903.45;1734655;79;21057;-89
2022/06/20 04:05:29;;;;;;;12.37;7.17;;;;;;;18.92;66.01;100896.17;1734867;79;21122;-88
2022/06/20 04:08:10;;;;;;;14.03;7.17;;;;;;;19.10;65.68;100902.48;1734746;79;23879;-86
2022/06/20 04:11:01;;;;;;;9.30;7.20;;;;;;;19.26;64.92;100894.77;1735635;79;20930;-89
2022/06/20 04:13:40;;;;;;;19.73;9.05;;;;;;;19.59;64.54;100901.92;1734451;79;20978;-87
2022/06/20 04:16:25;;;;;;;13.80;7.70;;;;;;;20.20;63.50;100899.77;1734388;79;20994;-89
2022/06/20 04:19:29;;;;;;;15.20;7.92;;;;;;;20.91;62.18;100896.39;1734377;79;21194;-87
2022/06/20 04:22:15;;;;;;;10.88;7.72;;;;;;;21.73;60.55;100897.04;1735250;81;21063;-88
2022/06/20 04:24:53;;;;;;;15.63;8.18;;;;;;;22.65;58.44;100901.27;1735065;81;21001;-89
2022/06/20 04:27:30;;;;;;;15.50;7.83;;;;;;;23.47;56.60;100904.00;1734781;79;20946;-88
2022/06/20 04:30:11;;;;;;;24.67;8.90;;;;;;;24.17;54.17;100900.66;1734491;79;20902;-88
2022/06/20 04:32:47;;;;;;;26.93;9.13;;;;;;;24.84;52.67;100892.09;1734894;79;21174;-87
2022/06/20 04:35:32;;;;;;;20.95;8.28;;;;;;;25.50;51.12;100891.53;1734738;79;20891;-88
2022/06/20 04:38:08;;;;;;;;;;;;;;;26.07;49.25;100892.79;1732418;79;20970;-88
2022/06/20 04:40:39;;;;;;;14.78;6.83;;;;;;;26.63;47.86;100891.70;1724764;79;20099;-87
2022/06/20 04:43:14;;;;;;;13.08;6.22;;;;;;;27.08;46.60;100891.84;1711760;81;20853;-87
2022/06/20 04:45:55;;;;;;;14.05;6.80;;;;;;;27.54;45.29;100885.67;1735506;81;21158;-87
2022/06/20 04:48:23;;;;;;;18.50;7.33;;;;;;;28.03;43.83;100886.08;1717422;82;20855;-87
2022/06/20 04:50:59;;;;;;;12.55;5.60;;;;;;;28.45;43.51;100884.98;1739830;82;20977;-89
2022/06/20 04:53:33;;;;;;;17.62;6.50;;;;;;;28.85;42.64;100886.97;1737711;82;20895;-88
2022/06/20 04:56:04;;;;;;;18.70;14.85;;;;;;;29.24;41.69;100886.70;1737719;82;20934;-87
2022/06/20 04:58:57;;;;;;;5.73;3.63;;;;;;;29.63;39.21;100886.33;1737758;82;21245;-88
2022/06/20 05:01:24;;;;;;;8.63;4.90;;;;;;;29.98;36.71;100884.17;1737242;82;20863;-88
2022/06/20 05:03:57;;;;;;;5.75;3.67;;;;;;;30.36;35.55;100885.58;1737491;82;21509;-87
2022/06/20 05:06:26;;;;;;;6.67;4.33;;;;;;;30.73;35.71;100887.67;1737296;82;22382;-89
2022/06/20 05:09:05;;;;;;;8.53;3.98;;;;;;;31.07;34.55;100890.98;1737748;81;20974;-88
2022/06/20 05:11:40;;;;;;;39.48;5.62;;;;;;;31.39;33.82;100887.16;1737477;81;21393;-87
2022/06/20 05:14:18;;;;;;;26.93;5.70;;;;;;;31.76;34.02;100891.27;1737422;81;20954;-88
2022/06/20 05:16:49;;;;;;;14.90;4.97;;;;;;;32.09;33.68;100888.72;1755121;80;20928;-88
2022/06/20 05:19:29;;;;;;;8.45;4.42;;;;;;;32.41;33.08;100888.50;1755320;80;21357;-89
2022/06/20 05:22:00;;;;;;;41.92;8.93;;;;;;;32.70;32.73;100886.02;1755250;80;21378;-87
2022/06/20 05:24:35;;;;;;;11.73;4.65;;;;;;;32.98;32.86;100883.48;1755439;81;21205;-89
2022/06/20 05:27:26;;;;;;;5.50;3.83;;;;;;;33.21;31.47;100889.48;1755176;80;20972;-87
2022/06/20 05:29:54;;;;;;;9.48;4.83;;;;;;;33.48;31.22;100881.39;1755185;80;20920;-88
2022/06/20 05:32:29;;;;;;;30.45;8.03;;;;;;;33.72;31.06;100880.86;1755140;81;20979;-89
2022/06/20 05:35:16;;;;;;;9.33;4.92;;;;;;;33.95;30.69;100882.69;1753097;81;21497;-89
2022/06/20 05:37:49;;;;;;;5.20;4.62;;;;;;;34.20;30.00;100881.05;1755274;81;21088;-89
2022/06/20 05:40:25;;;;;;;8.68;5.65;;;;;;;34.45;29.33;100877.98;1755662;80;20908;-88
2022/06/20 05:42:51;;;;;;;7.12;5.47;;;;;;;34.69;28.48;100875.16;1755365;81;20932;-88
2022/06/20 05:45:20;;;;;;;6.28;5.28;;;;;;;34.92;28.00;100880.98;1756111;81;20881;-88
2022/06/20 05:47:54;;;;;;;11.10;5.37;;;;;;;35.12;27.88;100877.23;1754887;81;20928;-89
2022/06/20 05:50:55;;;;;;;8.43;4.25;;;;;;;35.31;28.23;100877.80;1745764;81;21090;-89
2022/06/20 05:53:26;;;;;;;5.70;4.55;;;;;;;35.47;27.08;100876.12;1745228;81;20897;-90
2022/06/20 05:55:56;;;;;;;8.65;4.75;;;;;;;35.66;27.16;100868.47;1745464;81;20881;-89
2022/06/20 05:58:30;;;;;;;4.87;4.03;;;;;;;35.79;26.61;100865.91;1745363;81;20933;-91
2022/06/20 06:00:59;;;;;;;8.00;4.05;;;;;;;35.96;26.14;100861.20;1745892;81;21335;-90
2022/06/20 06:03:34;;;;;;;5.35;4.05;;;;;;;36.14;25.83;100855.16;1745580;81;20909;-91
2022/06/20 06:06:22;;;;;;;4.15;3.75;;;;;;;36.33;25.42;100846.89;1745695;81;20950;-90
2022/06/20 06:08:58;;;;;;;8.35;3.70;;;;;;;36.54;25.18;100845.16;1745686;81;21007;-89
2022/06/20 06:11:45;;;;;;;6.75;3.75;;;;;;;36.77;25.16;100845.92;1745843;81;20932;-90
2022/06/20 06:14:23;;;;;;;4.35;3.42;;;;;;;36.94;25.04;100843.86;1745816;81;20865;-90
2022/06/20 06:17:00;;;;;;;3.65;3.35;;;;;;;37.05;24.95;100838.74;1745669;81;22049;-89
2022/06/20 06:19:35;;;;;;;4.37;3.62;;;;;;;37.21;24.61;100835.58;1745948;82;20850;-92
2022/06/20 06:22:20;;;;;;;10.50;4.83;;;;;;;37.34;24.79;100833.73;1748045;79;20893;-91
2022/06/20 06:24:50;;;;;;;4.58;4.17;;;;;;;37.49;24.37;100831.62;1747597;78;20961;-91
2022/06/20 06:27:20;;;;;;;5.62;3.90;;;;;;;37.61;23.84;100824.58;1747713;78;20956;-92
2022/06/20 06:30:00;;;;;;;6.67;4.80;;;;;;;37.74;23.74;100824.64;1746588;79;21191;-88
2022/06/20 06:32:58;;;;;;;16.87;4.97;;;;;;;37.92;24.06;100820.58;1745618;80;20877;-90
2022/06/20 06:35:44;;;;;;;10.08;5.17;;;;;;;38.11;23.80;100813.53;1745690;81;20924;-89
2022/06/20 06:38:17;;;;;;;5.25;3.45;;;;;;;38.32;23.23;100805.33;1745695;81;20940;-90
2022/06/20 06:40:50;;;;;;;10.63;4.33;;;;;;;38.46;22.86;100805.05;1746213;78;20882;-90
2022/06/20 06:43:22;;;;;;;9.38;3.08;;;;;;;38.58;22.44;100799.86;1746285;80;21103;-89
2022/06/20 06:45:52;;;;;;;5.28;3.25;;;;;;;38.64;22.10;100795.47;1736277;82;20956;-90
2022/06/20 06:48:26;;;;;;;5.20;2.92;;;;;;;38.64;22.30;100802.33;1748029;80;21098;-89
2022/06/20 06:51:02;;;;;;;4.97;2.62;;;;;;;38.64;22.34;100804.25;1758968;81;20921;-88
2022/06/20 06:53:45;;;;;;;5.03;3.12;;;;;;;38.71;22.52;100799.30;1760186;78;20956;-89
2022/06/20 06:56:23;;;;;;;3.67;2.60;;;;;;;38.88;21.96;100801.75;1759686;81;21138;-88
2022/06/20 06:59:02;;;;;;;3.12;2.72;;;;;;;39.01;22.14;100790.80;1758847;80;20936;-89
2022/06/20 07:01:37;;;;;;;4.50;3.70;;;;;;;39.13;21.69;100796.25;1759013;80;20974;-89
2022/06/20 07:04:18;;;;;;;3.12;2.37;;;;;;;39.23;21.54;100796.75;1758902;81;21378;-89
2022/06/20 07:06:55;;;;;;;2.70;2.50;;;;;;;39.28;21.57;100795.35;1759502;81;20888;-89
2022/06/20 07:09:32;;;;;;;3.45;2.37;;;;;;;39.38;21.06;100789.87;1758580;81;21248;-89
2022/06/20 07:12:22;;;;;;;4.33;2.05;;;;;;;39.47;20.96;100790.66;1758473;80;20940;-90
2022/06/20 07:15:10;;;;;;;1.80;1.52;;;;;;;39.53;21.19;100792.26;1758725;80;21010;-89
2022/06/20 07:18:04;;;;;;;4.28;1.62;;;;;;;39.57;20.22;100787.85;1754963;81;21472;-89
2022/06/20 07:20:35;;;;;;;1.80;1.50;;;;;;;39.54;19.97;100782.37;1758511;81;21409;-87
2022/06/20 07:23:05;;;;;;;2.77;1.83;;;;;;;39.60;20.09;100773.58;1758713;81;21473;-87
2022/06/20 07:25:38;;;;;;;7.10;3.02;;;;;;;39.59;19.79;100774.66;1758371;81;21457;-88
2022/06/20 07:28:22;;;;;;;4.72;1.95;;;;;;;39.53;20.22;100767.02;1758722;81;20873;-90
2022/06/20 07:30:57;;;;;;;6.22;2.00;;;;;;;39.56;20.23;100763.70;1758734;80;20955;-90
2022/06/20 07:33:33;;;;;;;0.75;0.70;;;;;;;39.66;20.32;100764.19;1759015;81;20885;-90
2022/06/20 07:36:04;;;;;;;3.80;1.22;;;;;;;39.70;19.17;100758.95;1749726;81;20999;-91
2022/06/20 07:38:37;;;;;;;2.87;1.07;;;;;;;39.69;18.66;100750.44;1759140;79;21516;-89
2022/06/20 07:41:13;;;;;;;2.10;0.70;;;;;;;39.73;18.88;100748.23;1759392;81;20916;-90
2022/06/20 07:44:04;;;;;;;1.95;0.80;;;;;;;39.76;19.16;100747.66;1759037;81;21163;-89
2022/06/20 07:46:47;;;;;;;0.80;0.80;;;;;;;39.83;18.73;100739.69;1758956;80;20928;-89
2022/06/20 07:49:35;;;;;;;1.98;0.82;;;;;;;39.93;18.67;100730.83;1751615;81;21300;-90
2022/06/20 07:52:14;;;;;;;5.12;1.25;;;;;;;39.99;18.75;100720.60;1745326;81;20932;-90
2022/06/20 07:54:48;;;;;;;1.75;0.95;;;;;;;40.12;18.33;100725.44;1745461;81;20936;-90
2022/06/20 07:57:24;;;;;;;4.45;1.10;;;;;;;40.18;18.32;100721.55;1745621;81;20878;-90
2022/06/20 08:00:19;;;;;;;4.92;1.17;;;;;;;40.22;18.50;100714.90;1745420;81;20933;-89
2022/06/20 08:03:02;;;;;;;1.17;0.90;;;;;;;40.27;18.30;100709.97;1745523;81;21141;-89
2022/06/20 08:05:46;;;;;;;1.45;0.90;;;;;;;40.30;18.13;100703.88;1744994;81;21537;-89
2022/06/20 08:08:25;;;;;;;1.10;1.02;;;;;;;40.37;18.47;100703.80;1746515;82;20945;-88
2022/06/20 08:11:06;;;;;;;1.00;0.90;;;;;;;40.42;18.03;100698.80;1747711;81;20968;-90
2022/06/20 08:13:50;;;;;;;1.22;1.02;;;;;;;40.45;18.31;100701.55;1746616;82;20916;-87
2022/06/20 08:16:21;;;;;;;5.95;1.22;;;;;;;40.60;18.29;100696.70;1746066;82;21840;-89
2022/06/20 08:18:48;;;;;;;8.00;1.20;;;;;;;40.71;18.18;100694.70;1745306;81;21015;-89
2022/06/20 08:21:24;;;;;;;2.10;0.95;;;;;;;40.79;18.19;100694.59;1745727;80;20849;-89
2022/06/20 08:24:05;;;;;;;2.80;0.80;;;;;;;40.85;18.13;100686.55;1745729;81;20933;-89
2022/06/20 08:26:42;;;;;;;2.70;0.70;;;;;;;40.92;17.94;100688.37;1745821;81;20893;-89
2022/06/20 08:29:14;;;;;;;4.78;1.10;;;;;;;40.93;18.13;100685.06;1745589;82;21772;-89
2022/06/20 08:31:48;;;;;;;3.12;0.80;;;;;;;40.95;17.63;100674.02;1745912;81;20893;-88
2022/06/20 08:34:33;;;;;;;1.02;0.88;;;;;;;40.99;17.33;100675.64;1745584;82;20885;-88
2022/06/20 08:37:14;;;;;;;1.37;0.78;;;;;;;41.04;16.87;100672.81;1747688;79;20890;-88
2022/06/20 08:40:14;;;;;;;0.88;0.80;;;;;;;41.09;16.71;100676.05;1748197;78;21010;-87
2022/06/20 08:43:12;;;;;;;1.75;0.70;;;;;;;41.12;16.74;100675.48;1747944;79;21080;-87
2022/06/20 08:46:08;;;;;;;1.27;0.65;;;;;;;41.18;16.56;100668.26;1747892;78;20928;-88
2022/06/20 08:49:15;;;;;;;0.78;0.68;;;;;;;41.23;16.91;100663.23;1747427;78;20961;-87
2022/06/20 08:52:09;;;;;;;2.85;0.98;;;;;;;41.28;16.83;100663.72;1747105;79;21399;-88
2022/06/20 08:55:06;;;;;;;2.95;0.70;;;;;;;41.23;16.70;100654.98;1745935;81;20893;-88
2022/06/20 08:58:22;;;;;;;4.75;0.90;;;;;;;41.23;16.81;100656.92;1746076;81;21341;-88
2022/06/20 09:01:04;;;;;;;4.70;0.60;;;;;;;41.24;16.45;100644.78;1745662;82;21120;-88
2022/06/20 09:03:59;;;;;;;0.90;0.40;;;;;;;41.18;16.15;100650.37;1728294;81;20941;-88
2022/06/20 09:07:02;;;;;;;1.17;0.65;;;;;;;41.06;15.99;100641.69;1745746;81;20853;-88
2022/06/20 09:09:46;;;;;;;2.50;0.50;;;;;;;41.00;15.61;100642.34;1745147;81;20979;-88
2022/06/20 09:12:43;;;;;;;1.12;0.68;;;;;;;41.04;16.06;100635.66;1744546;81;22019;-87
2022/06/20 09:15:22;;;;;;;1.67;0.70;;;;;;;41.09;16.24;100637.52;1745250;80;20928;-89
2022/06/20 09:18:05;;;;;;;1.05;0.78;;;;;;;41.09;16.30;100636.15;1745594;82;20881;-89
2022/06/20 09:21:06;;;;;;;1.10;0.78;;;;;;;41.07;16.40;100629.59;1747449;82;20932;-89
2022/06/20 09:24:09;;;;;;;3.12;2.92;;;;;;;41.12;16.47;100619.87;1725262;78;20850;-88
2022/06/20 09:27:07;;;;;;;2.77;2.20;;;;;;;41.23;16.53;100618.39;1747955;78;21143;-87
2022/06/20 09:30:05;;;;;;;1.65;1.37;;;;;;;41.32;16.46;100611.09;1746851;78;21061;-88
2022/06/20 09:33:27;;;;;;;1.70;1.07;;;;;;;41.32;16.57;100608.34;1745635;81;21004;-89
2022/06/20 09:36:32;;;;;;;2.10;1.30;;;;;;;41.28;16.44;100604.55;1745607;81;20948;-88
2022/06/20 09:39:17;;;;;;;3.60;2.42;;;;;;;41.19;16.78;100596.95;1745718;81;20920;-89
2022/06/20 09:41:59;;;;;;;1.95;1.05;;;;;;;41.16;16.72;100594.00;1745900;80;22038;-89
2022/06/20 09:44:55;;;;;;;2.58;0.80;;;;;;;41.16;17.07;100589.87;1745529;81;21111;-88
2022/06/20 09:47:43;;;;;;;8.03;3.47;;;;;;;41.16;17.14;100589.30;1745662;82;20912;-89
2022/06/20 09:50:41;;;;;;;3.95;3.52;;;;;;;41.20;17.17;100590.88;1748333;80;21402;-90
2022/06/20 09:53:50;;;;;;;1.72;1.20;;;;;;;41.21;17.42;100586.47;1751470;81;20885;-89
2022/06/20 09:56:52;;;;;;;3.08;1.10;;;;;;;41.19;17.44;100589.26;1751286;81;21221;-88
2022/06/20 09:59:56;;;;;;;2.08;0.98;;;;;;;41.16;17.23;100578.30;1751302;82;20861;-89
2022/06/20 10:02:53;;;;;;;2.98;1.75;;;;;;;41.18;16.94;100576.63;1751348;82;20952;-90
2022/06/20 10:05:52;;;;;;;2.62;1.32;;;;;;;41.12;17.25;100569.53;1732914;81;21000;-91
2022/06/20 10:08:47;;;;;;;5.45;1.45;;;;;;;41.04;17.04;100560.56;1751199;80;20940;-92
2022/06/20 10:11:42;;;;;;;3.95;1.12;;;;;;;40.93;17.22;100568.14;1751599;81;21501;-91
2022/06/20 10:14:26;;;;;;;1.85;0.90;;;;;;;40.94;17.31;100565.67;1700986;81;20939;-89
2022/06/20 10:17:15;;;;;;;1.17;0.90;;;;;;;40.97;16.69;100559.00;1751512;82;21061;-90
2022/06/20 10:20:38;;;;;;;1.55;0.70;;;;;;;40.99;16.98;100557.33;1751698;81;21426;-89
2022/06/20 10:23:44;;;;;;;5.47;0.90;;;;;;;41.02;16.81;100556.72;1751731;82;20853;-90
2022/06/20 10:26:54;;;;;;;14.93;1.22;;;;;;;41.03;16.98;100545.19;1751741;82;21358;-91
2022/06/20 10:29:44;;;;;;;3.52;0.93;;;;;;;41.04;17.07;100553.12;1698787;83;20951;-91
2022/06/20 10:32:34;;;;;;;0.98;0.78;;;;;;;41.09;17.05;100541.22;1698353;83;21007;-89
2022/06/20 10:35:17;;;;;;;4.15;3.85;;;;;;;41.15;16.97;100540.87;1698677;83;20963;-88
2022/06/20 10:38:03;;;;;;;4.25;3.22;;;;;;;41.18;16.75;100546.36;1699031;83;20888;-88
2022/06/20 10:41:00;;;;;;;1.25;0.40;;;;;;;41.19;16.44;100538.34;1699009;84;21161;-89
2022/06/20 10:43:51;;;;;;;0.42;0.42;;;;;;;41.22;16.31;100532.23;1698957;83;20880;-90
2022/06/20 10:46:32;;;;;;;2.35;0.50;;;;;;;41.20;16.27;100526.20;1698763;83;20899;-89
2022/06/20 10:49:41;;;;;;;0.90;0.70;;;;;;;41.13;16.38;100525.75;1698853;83;20871;-91
2022/06/20 10:52:31;;;;;;;2.98;0.60;;;;;;;41.05;16.88;100525.88;1693249;83;20899;-91
2022/06/20 10:55:19;;;;;;;0.62;0.50;;;;;;;40.91;16.80;100524.98;1693638;83;21171;-91
2022/06/20 10:58:05;;;;;;;3.70;0.68;;;;;;;40.69;16.84;100520.88;1693564;81;20912;-91
2022/06/20 11:00:35;;;;;;;1.35;0.90;;;;;;;40.63;16.20;100516.56;1708108;80;20927;-92
2022/06/20 11:03:29;;;;;;;4.78;0.80;;;;;;;40.55;16.48;100526.84;1721566;82;20934;-91
2022/06/20 11:06:12;;;;;;;4.65;0.98;;;;;;;40.47;16.98;100518.70;1720158;82;21341;-91
2022/06/20 11:09:13;;;;;;;3.15;0.88;;;;;;;40.38;17.20;100513.05;1721447;83;20877;-90
2022/06/20 11:12:02;;;;;;;1.07;0.78;;;;;;;40.31;17.44;100509.84;1721513;82;20907;-91
2022/06/20 11:14:57;;;;;;;3.22;1.50;;;;;;;40.22;17.67;100506.05;1721304;82;20998;-90
2022/06/20 11:17:41;;;;;;;1.80;0.60;;;;;;;40.16;17.36;100502.56;1721313;82;21377;-90
2022/06/20 11:20:40;;;;;;;1.92;0.78;;;;;;;40.07;17.51;100496.66;1721299;82;20922;-90
2022/06/20 11:23:20;;;;;;;2.85;0.90;;;;;;;39.97;17.47;100494.83;1721474;82;21141;-92
2022/06/20 11:26:17;;;;;;;3.62;0.60;;;;;;;39.85;17.59;100493.05;1693534;83;20923;-91
2022/06/20 11:28:53;;;;;;;4.50;0.62;;;;;;;39.63;17.41;100483.35;1721344;82;20883;-89
2022/06/20 11:31:34;;;;;;;1.72;0.50;;;;;;;39.28;17.83;100486.66;1721200;80;20876;-90
2022/06/20 11:34:27;;;;;;;1.55;0.50;;;;;;;38.92;18.18;100477.87;1721130;82;20915;-89
2022/06/20 11:37:05;;;;;;;0.80;0.60;;;;;;;38.62;18.66;100481.62;1721467;83;21089;-91
2022/06/20 11:39:55;;;;;;;2.75;0.57;;;;;;;38.28;18.84;100472.72;1721077;83;21315;-90
2022/06/20 11:42:54;;;;;;;1.25;0.70;;;;;;;37.89;18.72;100475.58;1721576;82;21009;-90
2022/06/20 11:45:33;;;;;;;1.17;0.55;;;;;;;37.51;19.33;100468.80;1721636;82;20950;-92
2022/06/20 11:48:37;;;;;;;5.25;3.33;;;;;;;37.19;19.74;100463.05;1722734;80;20994;-89
2022/06/20 11:51:34;;;;;;;14.85;12.47;;;;;;;36.89;20.04;100462.47;1740024;81;21134;-89
2022/06/20 11:54:41;;;;;;;4.72;3.80;;;;;;;36.57;20.37;100461.27;1746443;80;21095;-90
2022/06/20 11:57:23;;;;;;;4.97;0.90;;;;;;;36.23;20.78;100452.97;1735612;81;20932;-91
2022/06/20 12:00:04;;;;;;;2.15;0.55;;;;;;;35.93;20.82;100448.70;1746208;82;20988;-90
2022/06/20 12:02:36;;;;;;;;;;;;;;;35.65;21.40;100448.82;1748293;81;20976;-90
2022/06/20 12:05:28;;;;;;;4.62;0.80;;;;;;;35.44;21.75;100450.57;1745874;81;21694;-91
2022/06/20 12:08:19;;;;;;;1.05;0.88;;;;;;;35.27;21.93;100448.52;1746039;81;20885;-90
2022/06/20 12:10:58;;;;;;;1.57;0.88;;;;;;;35.07;22.17;100438.24;1746463;81;21359;-90
2022/06/20 12:14:14;;;;;;;2.22;0.68;;;;;;;34.85;22.52;100443.22;1746355;81;20897;-90
2022/06/20 12:17:04;;;;;;;1.02;0.62;;;;;;;34.64;22.75;100434.55;1746191;81;20960;-90
2022/06/20 12:25:39;;;;;;;1.25;0.98;;;;;;;34.11;22.40;100425.23;1747985;78;20964;-90
2022/06/20 12:28:26;;;;;;;2.52;2.37;;;;;;;33.98;22.52;100429.11;1747749;78;20826;-91
2022/06/20 12:31:19;;;;;;;2.05;1.02;;;;;;;33.88;23.17;100426.23;1746108;78;20949;-92
2022/06/20 12:33:56;;;;;;;2.12;1.98;;;;;;;33.80;23.58;100417.44;1746343;82;21197;-91
2022/06/20 12:36:36;;;;;;;3.08;1.00;;;;;;;33.73;23.83;100407.80;1745719;81;20917;-90
2022/06/20 12:39:22;;;;;;;3.98;1.82;;;;;;;33.66;24.22;100406.62;1746230;81;20897;-92